createdAt,value
2023-03-30T00:00:27.440Z,75708.03
2023-03-30T00:10:30.103Z,75701.94
2023-03-30T00:20:33.108Z,75708.03
2023-03-30T00:30:37.504Z,75695.88
2023-03-30T00:40:42.515Z,75675.63
2023-03-30T00:50:49.733Z,75671.59
2023-03-30T01:00:53.338Z,75671.59
2023-03-30T01:11:02.974Z,75663.50
2023-03-30T01:21:14.004Z,75665.53
2023-03-30T01:31:29.404Z,75675.63
2023-03-30T01:41:40.807Z,75677.66
2023-03-30T01:51:48.787Z,75689.81
2023-03-30T02:01:55.353Z,75687.78
2023-03-30T02:12:00.018Z,75706.00
2023-03-30T02:22:12.025Z,75693.84
2023-03-30T02:32:27.136Z,75693.84
2023-03-30T02:43:03.706Z,75669.56
2023-03-30T02:53:25.457Z,75671.59
2023-03-30T03:03:37.759Z,75685.75
2023-03-30T03:13:40.869Z,75669.56
2023-03-30T03:23:44.462Z,75665.53
2023-03-30T03:33:53.695Z,75637.19
2023-03-30T03:44:04.198Z,75653.38
2023-03-30T03:54:07.128Z,75647.31
2023-03-30T04:04:10.259Z,75641.22
2023-03-30T04:14:14.860Z,75629.09
2023-03-30T04:24:36.491Z,75629.09
2023-03-30T04:34:57.263Z,75608.84
2023-03-30T04:45:14.424Z,75592.66
2023-03-30T04:55:37.286Z,75588.63
2023-03-30T05:06:01.517Z,75566.34
2023-03-30T05:16:40.711Z,75536.00
2023-03-30T05:27:02.585Z,75511.72
2023-03-30T05:37:18.086Z,75491.47
2023-03-30T05:47:33.542Z,75495.53
2023-03-30T05:57:51.020Z,75469.22
2023-03-30T06:08:15.514Z,75451.00
2023-03-30T06:18:25.161Z,75438.88
2023-03-30T06:28:36.290Z,75430.75
2023-03-30T06:38:40.562Z,75382.19
2023-03-30T06:48:45.532Z,75331.59
2023-03-30T06:59:06.333Z,75276.97
2023-03-30T07:09:22.145Z,75258.75
2023-03-30T07:19:27.126Z,75214.25
2023-03-30T07:29:35.148Z,75212.22
2023-03-30T07:39:42.498Z,75206.16
2023-03-30T07:49:48.492Z,75169.72
2023-03-30T07:59:56.994Z,75179.84
2023-03-30T08:10:15.130Z,75147.47
2023-03-30T08:20:55.118Z,75052.38
2023-03-30T08:31:08.416Z,75009.88
2023-03-30T08:41:28.065Z,74987.63
2023-03-30T08:51:48.466Z,75038.19
2023-03-30T09:02:22.943Z,75050.34
2023-03-30T09:12:44.750Z,75060.47
2023-03-30T09:22:47.746Z,75066.53
2023-03-30T09:33:08.059Z,75060.47
2023-03-30T09:43:44.444Z,74997.72
2023-03-30T09:53:53.004Z,74985.59
2023-03-30T10:04:16.793Z,74924.88
2023-03-30T10:14:42.580Z,74809.56
2023-03-30T10:24:55.906Z,74785.28
2023-03-30T10:35:02.144Z,74758.97
2023-03-30T10:45:20.958Z,74704.34
2023-03-30T10:55:34.524Z,74607.22
2023-03-30T11:05:50.009Z,74495.94
2023-03-30T11:15:57.134Z,74479.75
2023-03-30T11:26:08.986Z,74417.03
2023-03-30T11:36:40.890Z,74431.22
2023-03-30T11:46:56.209Z,74408.94
2023-03-30T11:57:21.518Z,74326.00
2023-03-30T12:07:49.781Z,74277.44
2023-03-30T12:18:30.741Z,74265.31
2023-03-30T12:29:11.295Z,74273.41
2023-03-30T12:39:57.563Z,74234.97
2023-03-30T12:50:08.436Z,74241.03
2023-03-30T13:00:28.991Z,74261.25
2023-03-30T13:10:39.453Z,74253.19
2023-03-30T13:21:08.455Z,74267.34
2023-03-30T13:31:23.282Z,74230.91
2023-03-30T13:41:58.406Z,74212.72
2023-03-30T13:52:10.159Z,74228.91
2023-03-30T14:02:18.018Z,74202.59
2023-03-30T14:12:20.433Z,74196.53
2023-03-30T14:22:31.584Z,74152.03
2023-03-30T14:32:36.712Z,74095.38
2023-03-30T14:42:45.315Z,74111.56
2023-03-30T14:52:54.356Z,74115.59
2023-03-30T15:02:59.159Z,74137.88
2023-03-30T15:13:07.733Z,74158.09
2023-03-30T15:23:15.476Z,74204.63
2023-03-30T15:33:28.388Z,74226.88
2023-03-30T15:43:38.114Z,74228.91
2023-03-30T15:53:45.341Z,74224.84
2023-03-30T16:04:01.589Z,74228.91
2023-03-30T16:14:07.686Z,74247.09
2023-03-30T16:24:13.732Z,74255.19
2023-03-30T16:34:20.650Z,74257.22
2023-03-30T16:44:26.217Z,74253.19
2023-03-30T16:54:32.972Z,74249.13
2023-03-30T17:04:37.405Z,74261.25
2023-03-30T17:14:44.119Z,74259.25
2023-03-30T17:24:47.184Z,74249.13
2023-03-30T17:34:54.579Z,74257.22
2023-03-30T17:45:11.846Z,74257.22
2023-03-30T17:55:23.338Z,74251.16
2023-03-30T18:05:32.154Z,74237.00
2023-03-30T18:15:40.023Z,74212.72
2023-03-30T18:25:50.783Z,74208.66
2023-03-30T18:35:57.292Z,74224.84
2023-03-30T18:46:17.128Z,74237.00
2023-03-30T18:56:28.358Z,74237.00
2023-03-30T19:06:35.721Z,74243.06
2023-03-30T19:16:39.331Z,74261.25
2023-03-30T19:26:55.459Z,74257.22
2023-03-30T19:37:02.424Z,74232.94
2023-03-30T19:47:12.444Z,74243.06
2023-03-30T19:57:18.708Z,74247.09
2023-03-30T20:07:27.000Z,74245.09
2023-03-30T20:17:56.697Z,74257.22
2023-03-30T20:27:59.548Z,74241.03
2023-03-30T20:38:11.758Z,74251.16
2023-03-30T20:48:30.724Z,74269.34
2023-03-30T20:58:37.034Z,74212.72
2023-03-30T21:08:41.880Z,74232.94
2023-03-30T21:18:44.205Z,74247.09
2023-03-30T21:28:46.480Z,74237.00
2023-03-30T21:38:48.923Z,74245.09
2023-03-30T21:48:54.756Z,74228.91
2023-03-30T21:58:57.654Z,74210.69
2023-03-30T22:09:02.336Z,74196.53
2023-03-30T22:19:04.992Z,74184.38
2023-03-30T22:29:09.937Z,74164.16
2023-03-30T22:39:13.044Z,74156.06
2023-03-30T22:49:15.752Z,74147.97
2023-03-30T22:59:21.332Z,74135.84
2023-03-30T23:09:24.491Z,74123.69
2023-03-30T23:19:29.585Z,74113.59
2023-03-30T23:29:36.549Z,74115.59
2023-03-30T23:39:39.148Z,74131.78
2023-03-30T23:49:48.616Z,74117.63
2023-03-30T23:59:50.897Z,74137.88
